createdAt,value
2018-06-03T00:00:46.746Z,14.90
2018-06-03T00:03:19.425Z,14.70
2018-06-03T00:05:51.902Z,18.93
2018-06-03T00:08:24.287Z,14.50
2018-06-03T00:10:56.700Z,14.93
2018-06-03T00:13:29.382Z,15.13
2018-06-03T00:16:01.780Z,14.33
2018-06-03T00:18:34.158Z,13.70
2018-06-03T00:21:17.872Z,19.77
2018-06-03T00:23:50.406Z,17.17
2018-06-03T00:26:23.044Z,15.13
2018-06-03T00:28:55.686Z,17.87
2018-06-03T00:31:28.107Z,22.87
2018-06-03T00:34:00.698Z,20.30
2018-06-03T00:36:43.281Z,22.17
2018-06-03T00:39:15.664Z,18.67
2018-06-03T00:41:48.061Z,16.40
2018-06-03T00:44:20.442Z,20.37
2018-06-03T00:46:52.841Z,18.90
2018-06-03T00:49:25.230Z,19.83
2018-06-03T00:51:57.950Z,19.80
2018-06-03T00:54:30.337Z,21.80
2018-06-03T00:57:09.821Z,19.40
2018-06-03T00:59:42.474Z,23.23
2018-06-03T01:02:15.182Z,22.53
2018-06-03T01:04:47.567Z,24.17
2018-06-03T01:07:19.970Z,20.57
2018-06-03T01:09:52.360Z,22.33
2018-06-03T01:12:24.762Z,18.80
2018-06-03T01:14:57.204Z,21.73
2018-06-03T01:17:29.606Z,23.03
2018-06-03T01:20:02.213Z,26.77
2018-06-03T01:22:34.638Z,28.50
2018-06-03T01:25:07.033Z,27.40
2018-06-03T01:27:39.426Z,25.70
2018-06-03T01:30:12.110Z,28.20
2018-06-03T01:32:44.768Z,28.67
2018-06-03T01:35:17.153Z,28.37
2018-06-03T01:37:49.557Z,29.50
2018-06-03T01:40:21.969Z,27.97
2018-06-03T01:42:54.378Z,30.07
2018-06-03T01:45:26.782Z,28.77
2018-06-03T01:47:59.191Z,27.97
2018-06-03T01:50:31.579Z,34.20
2018-06-03T01:53:04.341Z,32.20
2018-06-03T01:55:36.733Z,34.57
2018-06-03T01:58:09.390Z,34.43
2018-06-03T02:00:42.070Z,33.93
2018-06-03T02:03:14.774Z,36.53
2018-06-03T02:05:47.162Z,34.77
2018-06-03T02:08:19.570Z,36.80
2018-06-03T02:10:51.958Z,35.87
2018-06-03T02:13:24.381Z,35.77
2018-06-03T02:15:56.766Z,35.60
2018-06-03T02:18:29.410Z,37.97
2018-06-03T02:21:01.799Z,35.43
2018-06-03T02:23:34.230Z,34.87
2018-06-03T02:26:06.627Z,38.47
2018-06-03T02:28:39.126Z,39.50
2018-06-03T02:31:11.504Z,35.57
2018-06-03T02:33:43.914Z,40.30
2018-06-03T02:36:16.629Z,36.93
2018-06-03T02:38:49.042Z,37.73
2018-06-03T02:41:21.461Z,39.97
2018-06-03T02:43:54.146Z,38.50
2018-06-03T02:46:26.526Z,36.63
2018-06-03T02:48:58.922Z,42.03
2018-06-03T02:51:31.466Z,36.83
2018-06-03T02:54:03.998Z,38.57
2018-06-03T02:56:36.384Z,40.13
2018-06-03T02:59:08.781Z,41.43
2018-06-03T03:01:41.445Z,43.10
2018-06-03T03:04:13.861Z,43.07
2018-06-03T03:06:46.255Z,43.97
2018-06-03T03:09:18.682Z,44.73
2018-06-03T03:11:51.082Z,44.90
2018-06-03T03:14:23.494Z,41.90
2018-06-03T03:16:55.894Z,39.63
2018-06-03T03:19:28.598Z,36.57
2018-06-03T03:22:00.990Z,32.10
2018-06-03T03:24:33.389Z,40.00
2018-06-03T03:27:06.074Z,39.83
2018-06-03T03:29:38.474Z,39.47
2018-06-03T03:32:10.862Z,38.73
2018-06-03T03:34:43.508Z,44.57
2018-06-03T03:37:16.177Z,44.00
2018-06-03T03:39:48.578Z,38.23
2018-06-03T03:42:20.814Z,41.43
2018-06-03T03:44:53.527Z,41.20
2018-06-03T03:47:25.918Z,38.13
2018-06-03T03:49:58.325Z,41.37
2018-06-03T03:52:30.722Z,42.03
2018-06-03T03:55:03.431Z,39.57
2018-06-03T03:57:36.062Z,40.47
2018-06-03T04:00:08.494Z,41.43
2018-06-03T04:02:40.875Z,38.10
2018-06-03T04:05:13.941Z,37.67
2018-06-03T04:07:46.335Z,38.53
2018-06-03T04:10:18.768Z,39.03
2018-06-03T04:12:51.151Z,38.73
2018-06-03T04:15:23.841Z,36.73
2018-06-03T04:17:56.483Z,35.93
2018-06-03T04:20:29.198Z,33.60
2018-06-03T04:23:01.597Z,33.40
2018-06-03T04:25:34.005Z,34.13
2018-06-03T04:28:06.390Z,35.07
2018-06-03T04:30:38.803Z,40.40
2018-06-03T04:33:11.181Z,41.90
2018-06-03T04:35:43.897Z,35.33
2018-06-03T04:38:16.289Z,30.33
2018-06-03T04:40:48.727Z,35.47
2018-06-03T04:43:21.141Z,39.37
2018-06-03T04:45:53.552Z,31.63
2018-06-03T04:48:25.941Z,33.77
2018-06-03T04:50:58.357Z,36.00
2018-06-03T04:53:30.601Z,37.97
2018-06-03T04:56:03.321Z,29.33
2018-06-03T04:58:35.701Z,28.93
2018-06-03T05:01:08.097Z,26.80
2018-06-03T05:03:41.052Z,30.10
2018-06-03T05:06:13.726Z,33.37
2018-06-03T05:08:46.372Z,35.33
2018-06-03T05:11:18.770Z,32.03
2018-06-03T05:13:51.169Z,30.87
2018-06-03T05:16:23.660Z,31.97
2018-06-03T05:18:56.038Z,28.50
2018-06-03T05:21:28.448Z,29.90
2018-06-03T05:24:01.119Z,28.57
2018-06-03T05:26:34.293Z,25.43
2018-06-03T05:29:06.981Z,28.17
2018-06-03T05:31:39.386Z,30.67
2018-06-03T05:34:11.777Z,31.53
2018-06-03T05:36:44.425Z,28.80
2018-06-03T05:39:17.061Z,28.57
2018-06-03T05:41:49.769Z,25.80
2018-06-03T05:44:22.171Z,28.00
2018-06-03T05:46:54.930Z,28.90
2018-06-03T05:49:27.590Z,27.50
2018-06-03T05:52:00.044Z,30.17
2018-06-03T05:54:32.437Z,24.40
2018-06-03T05:57:04.885Z,29.80
2018-06-03T05:59:37.310Z,28.40
2018-06-03T06:02:09.758Z,31.30
2018-06-03T06:04:42.175Z,22.67
2018-06-03T06:07:15.257Z,24.47
2018-06-03T06:09:48.007Z,24.87
2018-06-03T06:12:20.434Z,29.40
2018-06-03T06:14:52.851Z,21.40
2018-06-03T06:17:25.294Z,24.57
2018-06-03T06:19:57.697Z,23.73
2018-06-03T06:22:30.134Z,22.05
2018-06-03T06:25:02.545Z,21.55
2018-06-03T06:27:35.252Z,20.55
2018-06-03T06:30:07.668Z,21.40
2018-06-03T06:32:40.122Z,24.53
2018-06-03T06:35:12.578Z,24.63
2018-06-03T06:37:45.019Z,26.50
2018-06-03T06:40:17.443Z,25.40
2018-06-03T06:42:49.858Z,24.77
2018-06-03T06:45:22.259Z,21.47
2018-06-03T06:47:54.914Z,21.33
2018-06-03T06:50:27.885Z,22.57
2018-06-03T06:53:00.326Z,25.07
2018-06-03T06:55:32.702Z,20.77
2018-06-03T06:58:05.445Z,21.20
2018-06-03T07:00:37.835Z,22.25
2018-06-03T07:03:10.352Z,16.10
2018-06-03T07:05:42.778Z,20.40
2018-06-03T07:08:15.202Z,18.12
2018-06-03T07:10:48.006Z,24.98
2018-06-03T07:13:20.713Z,23.15
2018-06-03T07:15:53.437Z,19.35
2018-06-03T07:18:25.836Z,19.98
2018-06-03T07:20:58.519Z,21.30
2018-06-03T07:23:30.945Z,18.62
2018-06-03T07:26:03.333Z,25.17
2018-06-03T07:28:35.751Z,26.87
2018-06-03T07:31:08.137Z,21.70
2018-06-03T07:33:40.559Z,21.73
2018-06-03T07:36:12.961Z,19.77
2018-06-03T07:38:45.382Z,26.55
2018-06-03T07:41:17.788Z,23.83
2018-06-03T07:43:50.201Z,26.80
2018-06-03T07:46:22.589Z,20.97
2018-06-03T07:48:55.245Z,27.45
2018-06-03T07:51:27.642Z,28.50
2018-06-03T07:54:00.055Z,28.60
2018-06-03T07:56:32.494Z,23.45
2018-06-03T07:59:04.917Z,25.40
2018-06-03T08:01:37.924Z,27.40
2018-06-03T08:04:10.611Z,25.48
2018-06-03T08:06:43.014Z,23.73
2018-06-03T08:09:15.750Z,22.60
2018-06-03T08:11:48.043Z,24.80
2018-06-03T08:14:20.442Z,25.17
2018-06-03T08:16:54.209Z,21.20
2018-06-03T08:19:26.614Z,17.20
2018-06-03T08:21:59.017Z,17.50
2018-06-03T08:24:31.681Z,18.20
2018-06-03T08:27:04.354Z,19.40
2018-06-03T08:29:36.790Z,19.32
2018-06-03T08:32:09.178Z,15.20
2018-06-03T08:34:41.569Z,17.35
2018-06-03T08:37:13.958Z,14.50
2018-06-03T08:39:46.378Z,18.67
2018-06-03T08:42:18.832Z,18.87
2018-06-03T08:44:51.279Z,22.70
2018-06-03T08:47:23.671Z,16.42
2018-06-03T08:49:56.078Z,17.37
2018-06-03T08:52:28.470Z,19.07
2018-06-03T08:55:00.902Z,17.45
2018-06-03T08:57:33.303Z,14.78
2018-06-03T09:00:05.708Z,18.95
2018-06-03T09:02:38.099Z,17.98
2018-06-03T09:05:10.502Z,19.77
2018-06-03T09:07:43.160Z,17.15
2018-06-03T09:10:15.570Z,17.15
2018-06-03T09:12:47.961Z,14.23
2018-06-03T09:15:20.397Z,13.60
2018-06-03T09:17:52.803Z,14.13
2018-06-03T09:20:25.218Z,14.33
2018-06-03T09:22:57.614Z,16.57
2018-06-03T09:25:30.033Z,13.58
2018-06-03T09:28:02.710Z,14.60
2018-06-03T09:30:35.383Z,14.45
2018-06-03T09:33:08.064Z,14.83
2018-06-03T09:35:41.075Z,15.75
2018-06-03T09:38:13.707Z,16.97
2018-06-03T09:40:46.439Z,15.10
2018-06-03T09:43:19.512Z,16.90
2018-06-03T09:45:51.942Z,13.43
2018-06-03T09:48:24.375Z,17.42
2018-06-03T09:50:57.030Z,19.12
2018-06-03T09:53:29.429Z,16.25
2018-06-03T09:56:02.414Z,19.42
2018-06-03T09:58:35.161Z,17.05
2018-06-03T10:01:08.186Z,17.30
2018-06-03T10:03:40.859Z,20.82
2018-06-03T10:06:13.537Z,18.42
2018-06-03T10:08:46.154Z,15.25
2018-06-03T10:11:18.595Z,18.32
2018-06-03T10:13:50.971Z,19.37
2018-06-03T10:16:23.748Z,16.95
2018-06-03T10:18:56.163Z,18.32
2018-06-03T10:21:28.578Z,18.17
2018-06-03T10:24:00.966Z,16.67
2018-06-03T10:26:33.610Z,17.67
2018-06-03T10:29:05.995Z,16.32
2018-06-03T10:31:38.394Z,14.80
2018-06-03T10:34:10.774Z,17.90
2018-06-03T10:36:43.182Z,12.70
2018-06-03T10:39:15.575Z,13.83
2018-06-03T10:41:47.987Z,13.08
2018-06-03T10:44:20.400Z,13.45
2018-06-03T10:46:52.806Z,11.33
2018-06-03T10:49:25.197Z,13.18
2018-06-03T10:51:58.173Z,15.40
2018-06-03T10:54:30.859Z,14.30
2018-06-03T10:57:03.530Z,15.43
2018-06-03T10:59:35.909Z,15.10
2018-06-03T11:02:08.311Z,13.62
2018-06-03T11:04:40.697Z,14.10
2018-06-03T11:07:13.126Z,14.28
2018-06-03T11:09:45.512Z,14.43
2018-06-03T11:12:18.245Z,14.05
2018-06-03T11:14:50.891Z,16.30
2018-06-03T11:17:23.326Z,16.93
2018-06-03T11:19:55.721Z,16.00
2018-06-03T11:22:28.358Z,15.78
2018-06-03T11:25:00.991Z,16.93
2018-06-03T11:27:33.465Z,17.27
2018-06-03T11:30:05.798Z,18.62
2018-06-03T11:32:38.449Z,19.48
2018-06-03T11:35:10.837Z,19.40
2018-06-03T11:37:43.510Z,22.07
2018-06-03T11:40:15.921Z,20.65
2018-06-03T11:42:48.326Z,16.60
2018-06-03T11:45:21.315Z,21.12
2018-06-03T11:47:53.994Z,21.87
2018-06-03T11:50:26.407Z,17.98
2018-06-03T11:52:58.810Z,17.48
2018-06-03T11:55:31.205Z,22.77
2018-06-03T11:58:41.123Z,23.47
2018-06-03T12:01:13.506Z,21.37
2018-06-03T12:03:45.919Z,20.12
2018-06-03T12:06:18.304Z,22.00
2018-06-03T12:08:50.998Z,23.25
2018-06-03T12:11:23.690Z,23.73
2018-06-03T12:13:56.430Z,22.73
2018-06-03T12:16:28.817Z,21.33
2018-06-03T12:19:01.247Z,24.85
2018-06-03T12:21:33.697Z,23.02
2018-06-03T12:24:06.662Z,23.20
2018-06-03T12:26:39.042Z,20.57
2018-06-03T12:29:11.691Z,20.90
2018-06-03T12:31:44.081Z,28.20
2018-06-03T12:34:16.485Z,21.90
2018-06-03T12:36:48.869Z,22.95
2018-06-03T12:39:21.595Z,24.63
2018-06-03T12:41:54.376Z,20.85
2018-06-03T12:44:27.384Z,21.00
2018-06-03T12:47:01.139Z,19.35
2018-06-03T12:49:33.593Z,22.87
2018-06-03T12:52:06.043Z,19.90
2018-06-03T12:54:38.478Z,21.70
2018-06-03T12:57:10.901Z,19.92
2018-06-03T12:59:43.638Z,20.15
2018-06-03T13:02:16.054Z,19.40
2018-06-03T13:04:48.491Z,19.45
2018-06-03T13:07:20.894Z,21.73
2018-06-03T13:09:53.298Z,19.30
2018-06-03T13:12:25.697Z,18.90
2018-06-03T13:14:58.200Z,17.20
2018-06-03T13:17:30.907Z,18.80
2018-06-03T13:20:03.538Z,20.88
2018-06-03T13:22:36.165Z,17.15
2018-06-03T13:25:08.628Z,18.70
2018-06-03T13:27:41.002Z,16.62
2018-06-03T13:30:13.401Z,16.97
2018-06-03T13:32:45.798Z,19.20
2018-06-03T13:35:18.203Z,19.67
2018-06-03T13:37:50.580Z,20.40
2018-06-03T13:40:22.974Z,20.15
2018-06-03T13:42:55.412Z,28.17
2018-06-03T13:45:27.988Z,22.10
2018-06-03T13:48:00.417Z,24.92
2018-06-03T13:50:33.121Z,23.25
2018-06-03T13:53:05.764Z,22.87
2018-06-03T13:55:38.478Z,21.17
2018-06-03T13:58:11.238Z,27.37
2018-06-03T14:00:43.693Z,25.80
2018-06-03T14:03:16.702Z,25.72
2018-06-03T14:05:49.122Z,26.87
2018-06-03T14:08:21.545Z,29.98
2018-06-03T14:10:54.266Z,26.27
2018-06-03T14:13:26.680Z,23.92
2018-06-03T14:15:59.123Z,23.70
2018-06-03T14:18:31.534Z,25.60
2018-06-03T14:21:04.257Z,23.87
2018-06-03T14:23:36.675Z,24.60
2018-06-03T14:26:09.110Z,24.65
2018-06-03T14:28:41.522Z,25.17
2018-06-03T14:31:13.959Z,25.37
2018-06-03T14:33:46.626Z,23.32
2018-06-03T14:36:19.061Z,23.18
2018-06-03T14:38:51.474Z,22.13
2018-06-03T14:41:23.914Z,21.57
2018-06-03T14:43:56.286Z,22.60
2018-06-03T14:46:28.705Z,23.42
2018-06-03T14:49:01.366Z,21.87
2018-06-03T14:51:33.791Z,22.20
2018-06-03T14:54:06.468Z,25.17
2018-06-03T14:56:38.988Z,24.60
2018-06-03T14:59:11.326Z,26.65
2018-06-03T15:01:44.051Z,26.45
2018-06-03T15:04:16.430Z,23.80
2018-06-03T15:06:48.835Z,25.30
2018-06-03T15:09:21.218Z,24.60
2018-06-03T15:11:53.630Z,26.45
2018-06-03T15:14:26.318Z,27.27
2018-06-03T15:16:58.734Z,24.85
2018-06-03T15:19:31.121Z,23.85
2018-06-03T15:22:03.540Z,24.18
2018-06-03T15:24:36.233Z,23.65
2018-06-03T15:27:08.967Z,23.85
2018-06-03T15:29:41.373Z,25.32
2018-06-03T15:32:13.798Z,22.87
2018-06-03T15:34:46.049Z,23.50
2018-06-03T15:37:18.505Z,24.05
2018-06-03T15:39:50.922Z,23.62
2018-06-03T15:42:23.327Z,23.32
2018-06-03T15:44:55.722Z,25.35
2018-06-03T15:47:28.133Z,22.50
2018-06-03T15:50:00.540Z,23.02
2018-06-03T15:52:32.979Z,24.37
2018-06-03T15:55:05.373Z,22.93
2018-06-03T15:57:37.823Z,24.82
2018-06-03T16:00:10.506Z,23.80
2018-06-03T16:02:42.930Z,24.25
2018-06-03T16:05:15.332Z,23.83
2018-06-03T16:07:48.096Z,22.37
2018-06-03T16:10:20.551Z,21.85
2018-06-03T16:12:52.965Z,20.23
2018-06-03T16:15:25.352Z,21.97
2018-06-03T16:17:58.073Z,23.62
2018-06-03T16:20:30.757Z,23.20
2018-06-03T16:23:03.243Z,21.40
2018-06-03T16:25:35.701Z,20.00
2018-06-03T16:28:08.176Z,21.73
2018-06-03T16:30:40.557Z,21.12
2018-06-03T16:33:13.122Z,20.80
2018-06-03T16:35:45.510Z,22.22
2018-06-03T16:38:17.946Z,20.10
2018-06-03T16:40:50.363Z,21.55
2018-06-03T16:43:22.801Z,22.80
2018-06-03T16:45:55.190Z,23.27
2018-06-03T16:48:27.597Z,20.23
2018-06-03T16:51:00.282Z,23.38
2018-06-03T16:53:32.742Z,24.45
2018-06-03T16:56:05.137Z,24.63
2018-06-03T16:58:37.539Z,22.65
2018-06-03T17:01:10.228Z,22.10
2018-06-03T17:03:42.677Z,23.65
2018-06-03T17:06:15.064Z,22.95
2018-06-03T17:08:47.477Z,27.07
2018-06-03T17:11:19.874Z,21.10
2018-06-03T17:13:52.388Z,22.15
2018-06-03T17:16:24.795Z,21.68
2018-06-03T17:18:57.232Z,20.77
2018-06-03T17:21:29.613Z,22.30
2018-06-03T17:24:02.040Z,23.83
2018-06-03T17:26:34.476Z,25.02
2018-06-03T17:29:07.207Z,24.18
2018-06-03T17:31:39.586Z,26.68
2018-06-03T17:34:12.245Z,25.05
2018-06-03T17:36:44.755Z,24.77
2018-06-03T17:39:17.166Z,25.70
2018-06-03T17:41:49.670Z,27.93
2018-06-03T17:44:22.689Z,27.35
2018-06-03T17:46:55.132Z,26.07
2018-06-03T17:49:27.565Z,24.93
2018-06-03T17:51:59.986Z,22.62
2018-06-03T17:54:32.466Z,23.18
2018-06-03T17:57:04.883Z,21.77
2018-06-03T17:59:37.335Z,22.23
2018-06-03T18:02:10.006Z,23.22
2018-06-03T18:04:42.580Z,21.73
2018-06-03T18:07:15.266Z,21.05
2018-06-03T18:09:47.951Z,23.60
2018-06-03T18:12:20.618Z,21.82
2018-06-03T18:14:53.382Z,23.00
2018-06-03T18:17:25.794Z,25.20
2018-06-03T18:19:58.245Z,24.30
2018-06-03T18:22:30.971Z,21.00
2018-06-03T18:25:03.393Z,24.87
2018-06-03T18:27:35.810Z,24.35
2018-06-03T18:30:08.241Z,22.10
2018-06-03T18:32:40.662Z,24.27
2018-06-03T18:35:13.090Z,22.93
2018-06-03T18:37:45.512Z,23.13
2018-06-03T18:40:18.445Z,22.43
2018-06-03T18:42:51.094Z,24.97
2018-06-03T18:45:23.542Z,22.63
2018-06-03T18:47:55.967Z,22.63
2018-06-03T18:50:28.390Z,22.03
2018-06-03T18:53:01.047Z,21.10
2018-06-03T18:55:33.777Z,22.77
2018-06-03T18:58:06.550Z,21.93
2018-06-03T19:00:39.209Z,23.40
2018-06-03T19:03:11.902Z,22.13
2018-06-03T19:05:44.325Z,23.77
2018-06-03T19:08:16.768Z,22.03
2018-06-03T19:10:49.198Z,22.13
2018-06-03T19:13:21.611Z,21.97
2018-06-03T19:15:54.055Z,22.27
2018-06-03T19:18:26.728Z,21.50
2018-06-03T19:20:59.164Z,22.90
2018-06-03T19:23:31.586Z,21.87
2018-06-03T19:26:04.034Z,23.60
2018-06-03T19:28:36.450Z,23.43
2018-06-03T19:31:09.266Z,21.97
2018-06-03T19:33:42.009Z,19.77
2018-06-03T19:36:14.454Z,19.02
